This is the latest recevied weather packets stored in our database for station/object K0CVS. If no packets are shown the sender has not sent any weather packets the latest 10 day(s).
| Time | Temp. | Humidity | Pressure | Rain* | Wind** | Luminosity | Snow |
|---|---|---|---|---|---|---|---|
| 1777407584 | 13.33° C | 70% | 1015.7 hPa | 0 mm | - | 124 W/m² | - |
| 1777407283 | 13.33° C | 70% | 1015.9 hPa | 0 mm | - | 145 W/m² | - |
| 1777406983 | 13.33° C | 70% | 1015.9 hPa | 0 mm | - | 114 W/m² | - |
| 1777406677 | 13.33° C | 69% | 1016.1 hPa | 0 mm | - | 104 W/m² | - |
| 1777406373 | 13.33° C | 70% | 1015.8 hPa | 0 mm | - | 87 W/m² | - |
| 1777406073 | 13.89° C | 68% | 1015.6 hPa | 1.78 mm | - | 110 W/m² | - |
| 1777405770 | 13.89° C | 69% | 1015.2 hPa | 0 mm | - | 154 W/m² | - |
| 1777405466 | 13.89° C | 68% | 1015.1 hPa | 0 mm | - | 169 W/m² | - |
| 1777405164 | 13.33° C | 70% | 1015.2 hPa | 0 mm | - | 173 W/m² | - |
| 1777404861 | 12.78° C | 71% | 1015.3 hPa | 0 mm | - | 141 W/m² | - |
| 1777404559 | 12.78° C | 70% | 1015.2 hPa | 0 mm | - | 133 W/m² | - |
| 1777404255 | 12.78° C | 69% | 1015.3 hPa | 0 mm | - | 116 W/m² | - |
| 1777403951 | 13.33° C | 68% | 1015.2 hPa | 0 mm | - | 117 W/m² | - |
| 1777403650 | 13.33° C | 69% | 1015.3 hPa | 0 mm | - | 137 W/m² | - |
| 1777403344 | 13.89° C | 69% | 1015.2 hPa | 0 mm | - | 155 W/m² | - |
| 1777403044 | 13.89° C | 67% | 1015.4 hPa | 0 mm | - | 185 W/m² | - |
| 1777402740 | 13.89° C | 68% | 1014.9 hPa | 0 mm | - | 295 W/m² | - |
| 1777402436 | 13.33° C | 69% | 1015 hPa | 0 mm | - | 251 W/m² | - |
| 1777402134 | 13.33° C | 69% | 1015.1 hPa | 0 mm | - | 343 W/m² | - |
| 1777401830 | 13.33° C | 68% | 1015.2 hPa | 0 mm | - | 443 W/m² | - |
| 1777401528 | 12.78° C | 69% | 1015.3 hPa | 0 mm | - | 599 W/m² | - |
| 1777401224 | 12.78° C | 70% | 1015.4 hPa | 0 mm | - | 327 W/m² | - |
| 1777400920 | 12.78° C | 73% | 1015.6 hPa | 0 mm | - | 232 W/m² | - |
| 1777400616 | 12.78° C | 71% | 1015.2 hPa | 0 mm | - | 218 W/m² | - |
| 1777400315 | 12.22° C | 75% | 1015.4 hPa | 0 mm | - | 868 W/m² | - |
* Rain latest hour (hover to see other rain measurements)
** Current wind speed in m/s (hover to see current wind gust speed)